Seward Airport
PAWD : rendu visible

Aérodrome :











RETROUVEZ-NOUS SUR...

 
LOGIN :

S'inscrire | Disclaimer

   EN    FR    IT 

 









Légende :    VFR   VFR Marginal   IFR   IFR Intensif   IFR Très Intensif
Visi : 
Plafond : 
>= 8 km
>= 3000ft
5 à 8 km
1000 à 3000 ft
1500m à 5 km
500 à 1000 ft
800 à 1500m
200 à 500 ft
< 800m
< 200 ft
Symboles :   Orages  Brouillard  Fortes neiges  Fortes précipitations  Vent > 20 kt






- Altitude de l'aérodrome : 22 ft
- Code IATA : SWD


PAWD - Seward

DERNIER METAR :
  • 060953Z AUTO 00000KT 10SM OVC012 09/07 A2989 RMK AO2 SLP121 T00940072 TSNO

METARs EXPIRÉS :
  • 060935Z AUTO 16004KT 10SM OVC010 09/07 A2989 RMK AO2 T00940067 TSNO
  • 060902Z AUTO 00000KT 10SM OVC009 09/07 A2989 RMK AO2 CIG 008V013 T00890067 TSNO
  • 060853Z AUTO 00000KT 10SM OVC010 09/07 A2989 RMK AO2 CIG 008V013 SLP122 T00940072 401390072 51000 TSNO
  • 060813Z AUTO 17006KT 10SM BKN010 OVC015 10/07 A2989 RMK AO2 CIG 009V013 T01000072 TSNO
  • 060753Z AUTO 17007KT 10SM BKN015 09/07 A2989 RMK AO2 SLP122 T00940072 TSNO
  • 060653Z AUTO 17007KT 10SM CLR 10/07 A2989 RMK AO2 SLP121 T01000072 TSNO

TAF N/A
FIR PAZA / Amérique du Nord



MET'MAP, la Météo Aéronautique d'un coup d'oeil ! - Copyright ORBIFLY Décembre 2007 - Disclaimer

ORBIFLY MET'MAP TEAM :

Programmation & Développement : Alexandra Zaïnal
Sur une idée originale de : Baudouin d'Aumeries
Assistance à la programmation : Marc-Olivier Méhu
Soutien technique & logistique : Manuel Goepfert

Contact : metmap@orbifly.com




SOURCES & CREDITS :

   NOAA       Earth
Advisory